sensor_id;sensor_type;location;lat;lon;timestamp;P1;durP1;ratioP1;P2;durP2;ratioP2
8040;SDS011;4063;48.140;10.250;2023-07-24T00:01:49;13.88;;;10.50;;
8040;SDS011;4063;48.140;10.250;2023-07-24T00:04:15;13.30;;;9.82;;
8040;SDS011;4063;48.140;10.250;2023-07-24T00:06:41;14.18;;;9.88;;
8040;SDS011;4063;48.140;10.250;2023-07-24T00:09:07;14.07;;;10.23;;
8040;SDS011;4063;48.140;10.250;2023-07-24T00:11:33;14.30;;;10.00;;
8040;SDS011;4063;48.140;10.250;2023-07-24T00:13:59;12.35;;;9.25;;
8040;SDS011;4063;48.140;10.250;2023-07-24T00:16:25;14.43;;;9.80;;
8040;SDS011;4063;48.140;10.250;2023-07-24T00:18:51;13.93;;;9.90;;
8040;SDS011;4063;48.140;10.250;2023-07-24T00:21:17;13.57;;;10.45;;
8040;SDS011;4063;48.140;10.250;2023-07-24T00:23:43;12.52;;;10.18;;
8040;SDS011;4063;48.140;10.250;2023-07-24T00:26:09;12.32;;;9.77;;
8040;SDS011;4063;48.140;10.250;2023-07-24T00:28:35;14.95;;;10.43;;
8040;SDS011;4063;48.140;10.250;2023-07-24T00:31:01;10.80;;;9.25;;
8040;SDS011;4063;48.140;10.250;2023-07-24T00:33:27;14.82;;;9.68;;
8040;SDS011;4063;48.140;10.250;2023-07-24T00:35:56;13.55;;;10.10;;
8040;SDS011;4063;48.140;10.250;2023-07-24T00:38:22;14.98;;;10.23;;
8040;SDS011;4063;48.140;10.250;2023-07-24T00:40:49;13.02;;;9.73;;
8040;SDS011;4063;48.140;10.250;2023-07-24T00:43:15;14.32;;;9.68;;
8040;SDS011;4063;48.140;10.250;2023-07-24T00:45:41;11.98;;;9.43;;
8040;SDS011;4063;48.140;10.250;2023-07-24T00:48:07;13.02;;;10.07;;
8040;SDS011;4063;48.140;10.250;2023-07-24T00:50:33;16.80;;;10.50;;
8040;SDS011;4063;48.140;10.250;2023-07-24T00:53:01;13.88;;;10.07;;
8040;SDS011;4063;48.140;10.250;2023-07-24T00:55:27;12.68;;;10.63;;
8040;SDS011;4063;48.140;10.250;2023-07-24T00:57:53;12.90;;;9.57;;
8040;SDS011;4063;48.140;10.250;2023-07-24T01:00:19;18.38;;;11.25;;
8040;SDS011;4063;48.140;10.250;2023-07-24T01:02:45;19.00;;;10.98;;
8040;SDS011;4063;48.140;10.250;2023-07-24T01:05:12;13.43;;;10.80;;
8040;SDS011;4063;48.140;10.250;2023-07-24T01:07:42;17.48;;;10.50;;
8040;SDS011;4063;48.140;10.250;2023-07-24T01:10:08;11.75;;;10.35;;
8040;SDS011;4063;48.140;10.250;2023-07-24T01:12:44;14.10;;;10.77;;
8040;SDS011;4063;48.140;10.250;2023-07-24T01:15:16;14.77;;;12.00;;
8040;SDS011;4063;48.140;10.250;2023-07-24T01:17:46;14.77;;;12.00;;
8040;SDS011;4063;48.140;10.250;2023-07-24T01:20:13;15.85;;;12.18;;
8040;SDS011;4063;48.140;10.250;2023-07-24T01:25:27;18.65;;;12.18;;
8040;SDS011;4063;48.140;10.250;2023-07-24T01:27:54;13.60;;;11.13;;
8040;SDS011;4063;48.140;10.250;2023-07-24T01:30:20;16.25;;;11.48;;
8040;SDS011;4063;48.140;10.250;2023-07-24T01:32:47;14.85;;;11.98;;
8040;SDS011;4063;48.140;10.250;2023-07-24T01:35:13;14.32;;;12.05;;
8040;SDS011;4063;48.140;10.250;2023-07-24T01:37:39;14.68;;;11.65;;
8040;SDS011;4063;48.140;10.250;2023-07-24T01:40:08;15.30;;;10.70;;
8040;SDS011;4063;48.140;10.250;2023-07-24T01:42:34;13.45;;;11.10;;
8040;SDS011;4063;48.140;10.250;2023-07-24T01:45:01;13.02;;;11.05;;
8040;SDS011;4063;48.140;10.250;2023-07-24T01:47:28;16.60;;;12.05;;
8040;SDS011;4063;48.140;10.250;2023-07-24T01:49:54;14.63;;;12.05;;
8040;SDS011;4063;48.140;10.250;2023-07-24T01:52:20;15.80;;;12.27;;
8040;SDS011;4063;48.140;10.250;2023-07-24T01:54:46;16.80;;;11.70;;
8040;SDS011;4063;48.140;10.250;2023-07-24T01:57:12;16.08;;;12.10;;
8040;SDS011;4063;48.140;10.250;2023-07-24T01:59:38;17.27;;;12.43;;
8040;SDS011;4063;48.140;10.250;2023-07-24T02:02:04;18.65;;;14.32;;
8040;SDS011;4063;48.140;10.250;2023-07-24T02:04:30;22.38;;;12.25;;
8040;SDS011;4063;48.140;10.250;2023-07-24T02:06:56;22.17;;;12.35;;
8040;SDS011;4063;48.140;10.250;2023-07-24T02:09:22;13.45;;;11.18;;
8040;SDS011;4063;48.140;10.250;2023-07-24T02:11:48;18.17;;;13.45;;
8040;SDS011;4063;48.140;10.250;2023-07-24T02:14:14;15.73;;;11.43;;
8040;SDS011;4063;48.140;10.250;2023-07-24T02:16:41;23.00;;;14.65;;
8040;SDS011;4063;48.140;10.250;2023-07-24T02:19:07;17.70;;;11.48;;
8040;SDS011;4063;48.140;10.250;2023-07-24T02:21:33;14.10;;;12.25;;
8040;SDS011;4063;48.140;10.250;2023-07-24T02:23:59;15.75;;;11.57;;
8040;SDS011;4063;48.140;10.250;2023-07-24T02:26:25;16.95;;;12.43;;
8040;SDS011;4063;48.140;10.250;2023-07-24T02:28:51;19.30;;;12.65;;
8040;SDS011;4063;48.140;10.250;2023-07-24T02:31:19;15.15;;;12.60;;
8040;SDS011;4063;48.140;10.250;2023-07-24T02:33:44;25.17;;;16.13;;
8040;SDS011;4063;48.140;10.250;2023-07-24T02:36:11;16.60;;;13.95;;
8040;SDS011;4063;48.140;10.250;2023-07-24T02:38:37;17.98;;;13.50;;
8040;SDS011;4063;48.140;10.250;2023-07-24T02:41:03;16.15;;;13.38;;
8040;SDS011;4063;48.140;10.250;2023-07-24T02:43:29;19.20;;;13.27;;
8040;SDS011;4063;48.140;10.250;2023-07-24T02:45:59;18.65;;;14.90;;
8040;SDS011;4063;48.140;10.250;2023-07-24T02:48:26;16.70;;;12.95;;
8040;SDS011;4063;48.140;10.250;2023-07-24T02:50:52;15.80;;;13.25;;
8040;SDS011;4063;48.140;10.250;2023-07-24T02:53:18;16.85;;;14.13;;
8040;SDS011;4063;48.140;10.250;2023-07-24T02:55:44;17.17;;;13.00;;
8040;SDS011;4063;48.140;10.250;2023-07-24T02:58:13;17.67;;;13.13;;
8040;SDS011;4063;48.140;10.250;2023-07-24T03:00:39;15.55;;;13.27;;
8040;SDS011;4063;48.140;10.250;2023-07-24T03:03:05;17.58;;;13.32;;
8040;SDS011;4063;48.140;10.250;2023-07-24T03:05:33;15.95;;;13.05;;
8040;SDS011;4063;48.140;10.250;2023-07-24T03:07:59;17.75;;;13.63;;
8040;SDS011;4063;48.140;10.250;2023-07-24T03:10:25;16.33;;;13.27;;
8040;SDS011;4063;48.140;10.250;2023-07-24T03:12:51;16.42;;;12.63;;
8040;SDS011;4063;48.140;10.250;2023-07-24T03:15:18;16.60;;;11.98;;
8040;SDS011;4063;48.140;10.250;2023-07-24T03:17:44;14.73;;;11.98;;
8040;SDS011;4063;48.140;10.250;2023-07-24T03:20:14;15.93;;;12.27;;
8040;SDS011;4063;48.140;10.250;2023-07-24T03:22:40;15.50;;;12.60;;
8040;SDS011;4063;48.140;10.250;2023-07-24T03:25:07;17.40;;;13.43;;
8040;SDS011;4063;48.140;10.250;2023-07-24T03:27:33;14.48;;;12.60;;
8040;SDS011;4063;48.140;10.250;2023-07-24T03:29:59;15.73;;;13.05;;
8040;SDS011;4063;48.140;10.250;2023-07-24T03:32:25;14.55;;;12.32;;
8040;SDS011;4063;48.140;10.250;2023-07-24T03:34:51;14.07;;;12.65;;
8040;SDS011;4063;48.140;10.250;2023-07-24T03:37:17;15.88;;;12.32;;
8040;SDS011;4063;48.140;10.250;2023-07-24T03:39:43;14.95;;;11.90;;
8040;SDS011;4063;48.140;10.250;2023-07-24T03:42:09;14.75;;;12.10;;
8040;SDS011;4063;48.140;10.250;2023-07-24T03:44:37;14.90;;;12.18;;
8040;SDS011;4063;48.140;10.250;2023-07-24T03:47:03;15.00;;;12.18;;
8040;SDS011;4063;48.140;10.250;2023-07-24T03:49:29;14.07;;;12.32;;
8040;SDS011;4063;48.140;10.250;2023-07-24T03:51:55;16.15;;;11.93;;
8040;SDS011;4063;48.140;10.250;2023-07-24T03:54:21;13.60;;;12.05;;
8040;SDS011;4063;48.140;10.250;2023-07-24T03:56:47;14.43;;;11.70;;
8040;SDS011;4063;48.140;10.250;2023-07-24T03:59:13;13.02;;;10.57;;
8040;SDS011;4063;48.140;10.250;2023-07-24T04:01:39;13.85;;;11.23;;
8040;SDS011;4063;48.140;10.250;2023-07-24T04:04:05;14.82;;;12.30;;
8040;SDS011;4063;48.140;10.250;2023-07-24T04:06:31;19.27;;;11.57;;
8040;SDS011;4063;48.140;10.250;2023-07-24T04:08:57;14.48;;;11.90;;
8040;SDS011;4063;48.140;10.250;2023-07-24T04:11:22;16.33;;;12.32;;
8040;SDS011;4063;48.140;10.250;2023-07-24T04:13:48;13.75;;;12.18;;
8040;SDS011;4063;48.140;10.250;2023-07-24T04:16:14;15.65;;;12.65;;
8040;SDS011;4063;48.140;10.250;2023-07-24T04:18:40;17.90;;;12.80;;
8040;SDS011;4063;48.140;10.250;2023-07-24T04:21:06;14.00;;;12.50;;
8040;SDS011;4063;48.140;10.250;2023-07-24T04:23:32;18.38;;;12.77;;
8040;SDS011;4063;48.140;10.250;2023-07-24T04:25:58;16.33;;;12.98;;
8040;SDS011;4063;48.140;10.250;2023-07-24T04:28:24;16.35;;;13.38;;
8040;SDS011;4063;48.140;10.250;2023-07-24T04:30:50;16.33;;;12.98;;
8040;SDS011;4063;48.140;10.250;2023-07-24T04:33:16;15.25;;;12.75;;
8040;SDS011;4063;48.140;10.250;2023-07-24T04:35:42;15.68;;;13.57;;
8040;SDS011;4063;48.140;10.250;2023-07-24T04:38:08;19.83;;;13.75;;
8040;SDS011;4063;48.140;10.250;2023-07-24T04:40:34;16.88;;;13.88;;
8040;SDS011;4063;48.140;10.250;2023-07-24T04:43:00;18.10;;;13.77;;
8040;SDS011;4063;48.140;10.250;2023-07-24T04:45:26;15.73;;;13.90;;
8040;SDS011;4063;48.140;10.250;2023-07-24T04:47:52;18.05;;;15.05;;
8040;SDS011;4063;48.140;10.250;2023-07-24T04:50:18;19.48;;;14.00;;
8040;SDS011;4063;48.140;10.250;2023-07-24T04:52:44;16.60;;;13.77;;
8040;SDS011;4063;48.140;10.250;2023-07-24T04:55:10;15.40;;;13.80;;
8040;SDS011;4063;48.140;10.250;2023-07-24T04:57:36;17.02;;;13.10;;
8040;SDS011;4063;48.140;10.250;2023-07-24T05:00:02;17.40;;;13.93;;
8040;SDS011;4063;48.140;10.250;2023-07-24T05:02:28;15.35;;;13.30;;
8040;SDS011;4063;48.140;10.250;2023-07-24T05:04:54;17.58;;;13.57;;
8040;SDS011;4063;48.140;10.250;2023-07-24T05:07:20;17.60;;;13.48;;
8040;SDS011;4063;48.140;10.250;2023-07-24T05:09:46;18.40;;;13.90;;
8040;SDS011;4063;48.140;10.250;2023-07-24T05:12:12;16.60;;;14.55;;
8040;SDS011;4063;48.140;10.250;2023-07-24T05:14:38;16.08;;;13.48;;
8040;SDS011;4063;48.140;10.250;2023-07-24T05:17:04;15.05;;;13.02;;
8040;SDS011;4063;48.140;10.250;2023-07-24T05:19:30;14.80;;;12.85;;
8040;SDS011;4063;48.140;10.250;2023-07-24T05:21:56;18.02;;;13.15;;
8040;SDS011;4063;48.140;10.250;2023-07-24T05:24:22;16.65;;;12.90;;
8040;SDS011;4063;48.140;10.250;2023-07-24T05:26:48;16.80;;;12.05;;
8040;SDS011;4063;48.140;10.250;2023-07-24T05:29:14;15.65;;;13.27;;
8040;SDS011;4063;48.140;10.250;2023-07-24T05:31:40;16.15;;;12.68;;
8040;SDS011;4063;48.140;10.250;2023-07-24T05:34:06;15.82;;;12.27;;
8040;SDS011;4063;48.140;10.250;2023-07-24T05:36:32;16.50;;;12.55;;
8040;SDS011;4063;48.140;10.250;2023-07-24T05:38:58;14.32;;;12.77;;
8040;SDS011;4063;48.140;10.250;2023-07-24T05:41:24;14.43;;;12.23;;
8040;SDS011;4063;48.140;10.250;2023-07-24T05:43:50;15.23;;;11.40;;
8040;SDS011;4063;48.140;10.250;2023-07-24T05:46:16;14.38;;;12.02;;
8040;SDS011;4063;48.140;10.250;2023-07-24T05:48:42;13.38;;;11.10;;
8040;SDS011;4063;48.140;10.250;2023-07-24T05:51:08;14.18;;;10.88;;
8040;SDS011;4063;48.140;10.250;2023-07-24T05:53:33;12.10;;;10.00;;
8040;SDS011;4063;48.140;10.250;2023-07-24T05:56:00;13.50;;;10.43;;
8040;SDS011;4063;48.140;10.250;2023-07-24T05:58:26;12.98;;;9.90;;
8040;SDS011;4063;48.140;10.250;2023-07-24T06:00:53;10.18;;;8.88;;
8040;SDS011;4063;48.140;10.250;2023-07-24T06:03:20;11.98;;;9.63;;
8040;SDS011;4063;48.140;10.250;2023-07-24T06:05:46;27.90;;;19.05;;
8040;SDS011;4063;48.140;10.250;2023-07-24T06:08:12;20.33;;;14.65;;
8040;SDS011;4063;48.140;10.250;2023-07-24T06:10:38;13.90;;;11.30;;
8040;SDS011;4063;48.140;10.250;2023-07-24T06:13:03;17.92;;;11.60;;
8040;SDS011;4063;48.140;10.250;2023-07-24T06:15:29;12.68;;;9.45;;
8040;SDS011;4063;48.140;10.250;2023-07-24T06:17:55;11.80;;;8.82;;
8040;SDS011;4063;48.140;10.250;2023-07-24T06:20:21;11.90;;;8.30;;
8040;SDS011;4063;48.140;10.250;2023-07-24T06:22:47;11.77;;;8.95;;
8040;SDS011;4063;48.140;10.250;2023-07-24T06:25:13;13.70;;;9.30;;
8040;SDS011;4063;48.140;10.250;2023-07-24T06:27:39;14.25;;;8.98;;
8040;SDS011;4063;48.140;10.250;2023-07-24T06:30:05;14.82;;;8.55;;
8040;SDS011;4063;48.140;10.250;2023-07-24T06:32:31;12.80;;;8.60;;
8040;SDS011;4063;48.140;10.250;2023-07-24T06:34:58;15.93;;;8.77;;
8040;SDS011;4063;48.140;10.250;2023-07-24T06:37:24;9.80;;;7.90;;
8040;SDS011;4063;48.140;10.250;2023-07-24T06:39:50;10.80;;;7.70;;
8040;SDS011;4063;48.140;10.250;2023-07-24T06:42:16;9.07;;;7.63;;
8040;SDS011;4063;48.140;10.250;2023-07-24T06:44:42;9.70;;;7.45;;
8040;SDS011;4063;48.140;10.250;2023-07-24T06:47:08;10.13;;;7.40;;
8040;SDS011;4063;48.140;10.250;2023-07-24T06:49:34;10.45;;;7.20;;
8040;SDS011;4063;48.140;10.250;2023-07-24T06:52:00;8.88;;;6.95;;
8040;SDS011;4063;48.140;10.250;2023-07-24T06:54:26;11.35;;;7.85;;
8040;SDS011;4063;48.140;10.250;2023-07-24T06:56:51;8.98;;;7.07;;
8040;SDS011;4063;48.140;10.250;2023-07-24T06:59:17;8.63;;;6.88;;
8040;SDS011;4063;48.140;10.250;2023-07-24T07:01:43;9.23;;;7.20;;
8040;SDS011;4063;48.140;10.250;2023-07-24T07:04:09;12.10;;;7.35;;
8040;SDS011;4063;48.140;10.250;2023-07-24T07:06:35;9.57;;;7.43;;
8040;SDS011;4063;48.140;10.250;2023-07-24T07:09:01;10.48;;;7.43;;
8040;SDS011;4063;48.140;10.250;2023-07-24T07:11:28;10.80;;;7.38;;
8040;SDS011;4063;48.140;10.250;2023-07-24T07:13:54;8.63;;;6.63;;
8040;SDS011;4063;48.140;10.250;2023-07-24T07:16:19;14.13;;;7.80;;
8040;SDS011;4063;48.140;10.250;2023-07-24T07:18:46;8.98;;;6.78;;
8040;SDS011;4063;48.140;10.250;2023-07-24T07:21:12;8.55;;;6.65;;
8040;SDS011;4063;48.140;10.250;2023-07-24T07:23:38;8.48;;;7.00;;
8040;SDS011;4063;48.140;10.250;2023-07-24T07:26:04;8.32;;;6.78;;
8040;SDS011;4063;48.140;10.250;2023-07-24T07:28:30;11.65;;;8.32;;
8040;SDS011;4063;48.140;10.250;2023-07-24T07:30:56;10.63;;;7.22;;
8040;SDS011;4063;48.140;10.250;2023-07-24T07:33:22;9.25;;;7.25;;
8040;SDS011;4063;48.140;10.250;2023-07-24T07:35:49;9.10;;;7.95;;
8040;SDS011;4063;48.140;10.250;2023-07-24T07:38:15;10.30;;;7.80;;
8040;SDS011;4063;48.140;10.250;2023-07-24T07:40:41;9.20;;;7.30;;
8040;SDS011;4063;48.140;10.250;2023-07-24T07:43:07;10.35;;;7.55;;
8040;SDS011;4063;48.140;10.250;2023-07-24T07:45:33;8.68;;;7.25;;
8040;SDS011;4063;48.140;10.250;2023-07-24T07:48:00;7.82;;;6.93;;
8040;SDS011;4063;48.140;10.250;2023-07-24T07:50:26;9.45;;;6.97;;
8040;SDS011;4063;48.140;10.250;2023-07-24T07:52:52;8.75;;;6.78;;
8040;SDS011;4063;48.140;10.250;2023-07-24T07:55:18;7.15;;;6.45;;
8040;SDS011;4063;48.140;10.250;2023-07-24T07:57:44;7.88;;;6.28;;
8040;SDS011;4063;48.140;10.250;2023-07-24T08:00:10;7.50;;;6.80;;
8040;SDS011;4063;48.140;10.250;2023-07-24T08:02:37;7.72;;;6.90;;
8040;SDS011;4063;48.140;10.250;2023-07-24T08:05:11;7.40;;;6.47;;
8040;SDS011;4063;48.140;10.250;2023-07-24T08:07:37;6.78;;;6.18;;
8040;SDS011;4063;48.140;10.250;2023-07-24T08:10:03;8.15;;;5.95;;
8040;SDS011;4063;48.140;10.250;2023-07-24T08:12:29;9.20;;;6.65;;
8040;SDS011;4063;48.140;10.250;2023-07-24T08:14:56;7.88;;;6.38;;
8040;SDS011;4063;48.140;10.250;2023-07-24T08:17:22;7.18;;;5.90;;
8040;SDS011;4063;48.140;10.250;2023-07-24T08:19:48;6.35;;;5.65;;
8040;SDS011;4063;48.140;10.250;2023-07-24T08:22:13;6.93;;;5.38;;
8040;SDS011;4063;48.140;10.250;2023-07-24T08:24:39;8.35;;;5.95;;
8040;SDS011;4063;48.140;10.250;2023-07-24T08:27:04;7.93;;;5.70;;
8040;SDS011;4063;48.140;10.250;2023-07-24T08:29:30;5.68;;;5.03;;
8040;SDS011;4063;48.140;10.250;2023-07-24T08:31:56;6.05;;;5.22;;
8040;SDS011;4063;48.140;10.250;2023-07-24T08:34:21;7.25;;;5.90;;
8040;SDS011;4063;48.140;10.250;2023-07-24T08:36:48;5.90;;;5.22;;
8040;SDS011;4063;48.140;10.250;2023-07-24T08:39:14;7.03;;;5.40;;
8040;SDS011;4063;48.140;10.250;2023-07-24T08:41:40;6.35;;;4.65;;
8040;SDS011;4063;48.140;10.250;2023-07-24T08:44:09;5.03;;;4.63;;
8040;SDS011;4063;48.140;10.250;2023-07-24T08:46:39;5.28;;;4.25;;
8040;SDS011;4063;48.140;10.250;2023-07-24T08:49:06;6.47;;;5.25;;
8040;SDS011;4063;48.140;10.250;2023-07-24T08:51:36;5.75;;;5.18;;
8040;SDS011;4063;48.140;10.250;2023-07-24T08:54:03;6.88;;;5.18;;
8040;SDS011;4063;48.140;10.250;2023-07-24T08:56:29;6.43;;;4.60;;
8040;SDS011;4063;48.140;10.250;2023-07-24T08:58:55;8.23;;;5.95;;
8040;SDS011;4063;48.140;10.250;2023-07-24T09:01:21;5.35;;;4.85;;
8040;SDS011;4063;48.140;10.250;2023-07-24T09:03:46;8.52;;;5.82;;
8040;SDS011;4063;48.140;10.250;2023-07-24T09:06:12;9.98;;;7.18;;
8040;SDS011;4063;48.140;10.250;2023-07-24T09:08:38;6.10;;;4.85;;
8040;SDS011;4063;48.140;10.250;2023-07-24T09:11:05;7.47;;;4.88;;
8040;SDS011;4063;48.140;10.250;2023-07-24T09:16:01;5.93;;;4.40;;
8040;SDS011;4063;48.140;10.250;2023-07-24T09:18:37;4.93;;;4.43;;
8040;SDS011;4063;48.140;10.250;2023-07-24T09:21:07;4.70;;;4.13;;
8040;SDS011;4063;48.140;10.250;2023-07-24T09:23:33;5.20;;;4.43;;
8040;SDS011;4063;48.140;10.250;2023-07-24T09:25:59;4.93;;;4.43;;
8040;SDS011;4063;48.140;10.250;2023-07-24T09:28:29;6.25;;;5.22;;
8040;SDS011;4063;48.140;10.250;2023-07-24T09:30:56;5.65;;;4.70;;
8040;SDS011;4063;48.140;10.250;2023-07-24T09:33:23;6.35;;;4.85;;
8040;SDS011;4063;48.140;10.250;2023-07-24T09:36:00;4.95;;;4.45;;
8040;SDS011;4063;48.140;10.250;2023-07-24T09:38:26;5.43;;;4.22;;
8040;SDS011;4063;48.140;10.250;2023-07-24T09:40:52;5.63;;;4.82;;
8040;SDS011;4063;48.140;10.250;2023-07-24T09:43:22;5.72;;;4.35;;
8040;SDS011;4063;48.140;10.250;2023-07-24T09:45:49;6.97;;;4.78;;
8040;SDS011;4063;48.140;10.250;2023-07-24T09:48:15;6.93;;;4.70;;
8040;SDS011;4063;48.140;10.250;2023-07-24T09:50:42;5.90;;;4.75;;
8040;SDS011;4063;48.140;10.250;2023-07-24T09:53:11;6.18;;;5.03;;
8040;SDS011;4063;48.140;10.250;2023-07-24T09:55:47;6.05;;;4.97;;
8040;SDS011;4063;48.140;10.250;2023-07-24T09:58:23;6.00;;;5.05;;
8040;SDS011;4063;48.140;10.250;2023-07-24T10:00:49;5.18;;;4.53;;
8040;SDS011;4063;48.140;10.250;2023-07-24T10:03:15;5.85;;;4.57;;
8040;SDS011;4063;48.140;10.250;2023-07-24T10:05:46;5.32;;;4.70;;
8040;SDS011;4063;48.140;10.250;2023-07-24T10:08:12;5.30;;;4.80;;
8040;SDS011;4063;48.140;10.250;2023-07-24T10:10:39;7.30;;;5.25;;
8040;SDS011;4063;48.140;10.250;2023-07-24T10:13:06;5.38;;;4.65;;
8040;SDS011;4063;48.140;10.250;2023-07-24T10:15:32;5.65;;;4.95;;
8040;SDS011;4063;48.140;10.250;2023-07-24T10:18:04;7.45;;;4.82;;
8040;SDS011;4063;48.140;10.250;2023-07-24T10:20:34;6.10;;;4.88;;
8040;SDS011;4063;48.140;10.250;2023-07-24T10:23:01;6.07;;;4.78;;
8040;SDS011;4063;48.140;10.250;2023-07-24T10:25:30;5.45;;;4.80;;
8040;SDS011;4063;48.140;10.250;2023-07-24T10:28:03;5.20;;;4.70;;
8040;SDS011;4063;48.140;10.250;2023-07-24T10:30:32;6.28;;;5.65;;
8040;SDS011;4063;48.140;10.250;2023-07-24T10:35:38;6.22;;;4.47;;
8040;SDS011;4063;48.140;10.250;2023-07-24T10:38:05;8.05;;;4.70;;
8040;SDS011;4063;48.140;10.250;2023-07-24T10:40:32;7.03;;;5.60;;
8040;SDS011;4063;48.140;10.250;2023-07-24T10:43:05;6.28;;;4.93;;
8040;SDS011;4063;48.140;10.250;2023-07-24T10:45:42;6.40;;;4.53;;
8040;SDS011;4063;48.140;10.250;2023-07-24T10:48:13;5.00;;;4.25;;
8040;SDS011;4063;48.140;10.250;2023-07-24T10:50:40;10.65;;;6.95;;
8040;SDS011;4063;48.140;10.250;2023-07-24T10:53:08;7.95;;;5.38;;
8040;SDS011;4063;48.140;10.250;2023-07-24T10:55:34;6.80;;;5.90;;
8040;SDS011;4063;48.140;10.250;2023-07-24T10:58:00;9.30;;;6.90;;
8040;SDS011;4063;48.140;10.250;2023-07-24T11:00:26;7.07;;;4.93;;
8040;SDS011;4063;48.140;10.250;2023-07-24T11:02:53;7.85;;;5.72;;
8040;SDS011;4063;48.140;10.250;2023-07-24T11:05:20;7.85;;;5.68;;
8040;SDS011;4063;48.140;10.250;2023-07-24T11:07:46;5.57;;;4.43;;
8040;SDS011;4063;48.140;10.250;2023-07-24T11:10:16;5.78;;;4.68;;
8040;SDS011;4063;48.140;10.250;2023-07-24T11:12:43;4.68;;;4.13;;
8040;SDS011;4063;48.140;10.250;2023-07-24T11:15:09;4.65;;;4.25;;
8040;SDS011;4063;48.140;10.250;2023-07-24T11:17:36;6.25;;;4.70;;
8040;SDS011;4063;48.140;10.250;2023-07-24T11:20:12;7.40;;;5.57;;
8040;SDS011;4063;48.140;10.250;2023-07-24T11:22:39;5.47;;;4.90;;
8040;SDS011;4063;48.140;10.250;2023-07-24T11:25:05;12.18;;;6.85;;
8040;SDS011;4063;48.140;10.250;2023-07-24T11:27:31;9.02;;;6.50;;
8040;SDS011;4063;48.140;10.250;2023-07-24T11:29:57;7.97;;;4.80;;
8040;SDS011;4063;48.140;10.250;2023-07-24T11:32:23;6.78;;;4.88;;
8040;SDS011;4063;48.140;10.250;2023-07-24T11:34:50;7.38;;;5.50;;
8040;SDS011;4063;48.140;10.250;2023-07-24T11:37:17;6.85;;;5.38;;
8040;SDS011;4063;48.140;10.250;2023-07-24T11:39:43;7.80;;;5.88;;
8040;SDS011;4063;48.140;10.250;2023-07-24T11:42:20;4.82;;;4.22;;
8040;SDS011;4063;48.140;10.250;2023-07-24T11:44:46;6.70;;;5.00;;
8040;SDS011;4063;48.140;10.250;2023-07-24T11:47:12;6.20;;;4.15;;
8040;SDS011;4063;48.140;10.250;2023-07-24T11:49:38;5.20;;;3.95;;
8040;SDS011;4063;48.140;10.250;2023-07-24T11:52:10;4.60;;;4.18;;
8040;SDS011;4063;48.140;10.250;2023-07-24T11:54:36;6.35;;;4.90;;
8040;SDS011;4063;48.140;10.250;2023-07-24T11:57:02;7.45;;;4.53;;
8040;SDS011;4063;48.140;10.250;2023-07-24T11:59:28;7.93;;;5.22;;
8040;SDS011;4063;48.140;10.250;2023-07-24T12:01:54;7.75;;;5.40;;
8040;SDS011;4063;48.140;10.250;2023-07-24T12:04:20;7.03;;;5.18;;
8040;SDS011;4063;48.140;10.250;2023-07-24T12:06:46;7.25;;;5.72;;
8040;SDS011;4063;48.140;10.250;2023-07-24T12:09:12;6.25;;;5.38;;
8040;SDS011;4063;48.140;10.250;2023-07-24T12:11:39;8.95;;;6.00;;
8040;SDS011;4063;48.140;10.250;2023-07-24T12:14:06;6.43;;;5.70;;
8040;SDS011;4063;48.140;10.250;2023-07-24T12:16:33;9.18;;;6.53;;
8040;SDS011;4063;48.140;10.250;2023-07-24T12:18:59;8.27;;;6.05;;
8040;SDS011;4063;48.140;10.250;2023-07-24T12:21:25;5.72;;;5.07;;
8040;SDS011;4063;48.140;10.250;2023-07-24T12:23:51;9.02;;;6.00;;
8040;SDS011;4063;48.140;10.250;2023-07-24T12:26:17;6.68;;;6.03;;
8040;SDS011;4063;48.140;10.250;2023-07-24T12:28:43;6.13;;;5.00;;
8040;SDS011;4063;48.140;10.250;2023-07-24T12:31:09;8.38;;;5.32;;
8040;SDS011;4063;48.140;10.250;2023-07-24T12:33:35;6.07;;;5.20;;
8040;SDS011;4063;48.140;10.250;2023-07-24T12:36:01;6.90;;;5.20;;
8040;SDS011;4063;48.140;10.250;2023-07-24T12:38:27;7.22;;;5.63;;
8040;SDS011;4063;48.140;10.250;2023-07-24T12:40:53;7.63;;;5.97;;
8040;SDS011;4063;48.140;10.250;2023-07-24T12:43:19;5.45;;;4.95;;
8040;SDS011;4063;48.140;10.250;2023-07-24T12:45:45;5.07;;;4.57;;
8040;SDS011;4063;48.140;10.250;2023-07-24T12:48:11;6.25;;;5.20;;
8040;SDS011;4063;48.140;10.250;2023-07-24T12:50:37;8.15;;;5.32;;
8040;SDS011;4063;48.140;10.250;2023-07-24T12:53:03;6.57;;;5.40;;
8040;SDS011;4063;48.140;10.250;2023-07-24T12:55:29;5.05;;;4.55;;
8040;SDS011;4063;48.140;10.250;2023-07-24T12:57:55;7.30;;;4.63;;
8040;SDS011;4063;48.140;10.250;2023-07-24T13:00:21;5.72;;;4.85;;
8040;SDS011;4063;48.140;10.250;2023-07-24T13:02:48;4.80;;;4.18;;
8040;SDS011;4063;48.140;10.250;2023-07-24T13:05:14;4.95;;;4.45;;
8040;SDS011;4063;48.140;10.250;2023-07-24T13:07:40;5.38;;;4.55;;
8040;SDS011;4063;48.140;10.250;2023-07-24T13:10:07;5.07;;;4.10;;
8040;SDS011;4063;48.140;10.250;2023-07-24T13:12:33;4.28;;;3.83;;
8040;SDS011;4063;48.140;10.250;2023-07-24T13:14:58;4.72;;;4.03;;
8040;SDS011;4063;48.140;10.250;2023-07-24T13:17:24;4.05;;;3.72;;
8040;SDS011;4063;48.140;10.250;2023-07-24T13:19:51;3.55;;;3.25;;
8040;SDS011;4063;48.140;10.250;2023-07-24T13:22:17;5.05;;;3.38;;
8040;SDS011;4063;48.140;10.250;2023-07-24T13:24:42;4.35;;;3.63;;
8040;SDS011;4063;48.140;10.250;2023-07-24T13:27:08;3.70;;;3.40;;
8040;SDS011;4063;48.140;10.250;2023-07-24T13:29:33;2.97;;;2.67;;
8040;SDS011;4063;48.140;10.250;2023-07-24T13:31:59;3.30;;;3.00;;
8040;SDS011;4063;48.140;10.250;2023-07-24T13:34:25;3.40;;;2.63;;
8040;SDS011;4063;48.140;10.250;2023-07-24T13:36:50;3.22;;;2.85;;
8040;SDS011;4063;48.140;10.250;2023-07-24T13:39:16;3.30;;;2.50;;
8040;SDS011;4063;48.140;10.250;2023-07-24T13:41:42;3.33;;;2.58;;
8040;SDS011;4063;48.140;10.250;2023-07-24T13:44:09;2.60;;;2.40;;
8040;SDS011;4063;48.140;10.250;2023-07-24T13:46:35;2.50;;;2.17;;
8040;SDS011;4063;48.140;10.250;2023-07-24T13:49:01;2.15;;;1.90;;
8040;SDS011;4063;48.140;10.250;2023-07-24T13:51:28;1.92;;;1.80;;
8040;SDS011;4063;48.140;10.250;2023-07-24T13:53:54;2.42;;;2.00;;
8040;SDS011;4063;48.140;10.250;2023-07-24T13:56:20;2.08;;;1.70;;
8040;SDS011;4063;48.140;10.250;2023-07-24T13:58:48;2.60;;;1.77;;
8040;SDS011;4063;48.140;10.250;2023-07-24T14:01:14;2.15;;;1.98;;
8040;SDS011;4063;48.140;10.250;2023-07-24T14:03:40;2.17;;;1.98;;
8040;SDS011;4063;48.140;10.250;2023-07-24T14:06:06;2.13;;;1.67;;
8040;SDS011;4063;48.140;10.250;2023-07-24T14:08:32;2.20;;;1.80;;
8040;SDS011;4063;48.140;10.250;2023-07-24T14:10:58;1.92;;;1.70;;
8040;SDS011;4063;48.140;10.250;2023-07-24T14:13:24;2.40;;;1.95;;
8040;SDS011;4063;48.140;10.250;2023-07-24T14:15:50;1.80;;;1.55;;
8040;SDS011;4063;48.140;10.250;2023-07-24T14:18:16;1.80;;;1.70;;
8040;SDS011;4063;48.140;10.250;2023-07-24T14:20:42;2.55;;;2.10;;
8040;SDS011;4063;48.140;10.250;2023-07-24T14:23:08;1.70;;;1.60;;
8040;SDS011;4063;48.140;10.250;2023-07-24T14:25:34;2.00;;;1.80;;
8040;SDS011;4063;48.140;10.250;2023-07-24T14:28:00;2.10;;;1.85;;
8040;SDS011;4063;48.140;10.250;2023-07-24T14:30:26;2.58;;;1.70;;
8040;SDS011;4063;48.140;10.250;2023-07-24T14:32:52;2.63;;;1.90;;
8040;SDS011;4063;48.140;10.250;2023-07-24T14:35:18;2.80;;;2.17;;
8040;SDS011;4063;48.140;10.250;2023-07-24T14:37:44;1.60;;;1.50;;
8040;SDS011;4063;48.140;10.250;2023-07-24T14:40:10;2.00;;;1.80;;
8040;SDS011;4063;48.140;10.250;2023-07-24T14:42:37;1.90;;;1.75;;
8040;SDS011;4063;48.140;10.250;2023-07-24T14:45:03;1.92;;;1.70;;
8040;SDS011;4063;48.140;10.250;2023-07-24T14:47:29;2.50;;;1.92;;
8040;SDS011;4063;48.140;10.250;2023-07-24T14:49:56;2.72;;;1.92;;
8040;SDS011;4063;48.140;10.250;2023-07-24T14:52:22;2.50;;;2.10;;
8040;SDS011;4063;48.140;10.250;2023-07-24T14:54:49;2.63;;;2.33;;